Nearby METAR Reports

 

KMSY - New Orleans,Louisiana, USA
Distance from station: E 11.7mi, 18.8km
Updated: Fri, 25-May-2018 7:02am CDT
Mostly cloudy
Mostly cloudy
 Wind from calm
Wind: Calm
Temperature: 79°F , 26°C
Dew Point: 73°F , 23°C
Humidity: 84%
Barometer: 30.00 inHg , 1015.9 hPa
Clouds: Mostly cloudy
Visibility: 10 miles , 16 km
Cloud details: Few Clouds 2000 ft
Partly cloudy 12000 ft
Mostly cloudy 25000 ft
2018/05/25 12:02 KMSY 251202Z 00000KT 10SM FEW020 SCT120 BKN250 26/23 A3000 RMK AO2 LTG DSNT N CB DSNT NE AND S T02560233
KAPS - Reserve,Louisiana, USA
Distance from station: W 8.4mi, 13.5km
Updated: Fri, 25-May-2018 7:35am CDT

 Wind from calm
Wind: Calm
Temperature: 75°F , 24°C
Dew Point: 73°F , 23°C
Humidity: 94%
Barometer: 30.01 inHg , 1016.3 hPa
Visibility: 10 miles , 16 km
2018/05/25 12:35 KAPS 251235Z AUTO 00000KT 10SM 24/23 A3001 RMK AO2 LTG DSNT SE AND S T02400225
 
KHDC - Hammond,Louisiana, USA
Distance from station: N 31.5mi, 50.6km
Updated: Fri, 25-May-2018 7:35am CDT
Clear
Clear
 Wind from calm
Wind: Calm
Temperature: 72°F , 22°C
Dew Point: 68°F , 20°C
Humidity: 88%
Barometer: 30.01 inHg , 1016.3 hPa
Clouds: Clear
Visibility: 10 miles , 16 km
2018/05/25 12:35 KHDC 251235Z AUTO 00000KT 10SM CLR 22/20 A3001 RMK AO2 LTG DSNT S
KHUM - Houma,Louisiana, USA
Distance from station: SW 36.54mi, 58.8km
Updated: Fri, 25-May-2018 7:50am CDT
Mostly cloudy
Mostly cloudy
 Wind from calm
Wind: Calm
Temperature: 75°F , 24°C
Dew Point: 73°F , 23°C
Humidity: 94%
Barometer: 30.01 inHg , 1016.3 hPa
Clouds: Mostly cloudy
Visibility: 7 miles , 11 km
Cloud details: Few Clouds 2000 ft
Mostly cloudy 12000 ft
2018/05/25 12:50 KHUM 251250Z 00000KT 7SM FEW020 BKN120 24/23 A3001